createdAt,value
2023-03-10T06:04:50.929Z,97715.13
2023-03-10T06:07:20.667Z,97706.56
2023-03-10T06:09:47.752Z,97715.09
2023-03-10T06:12:14.873Z,97713.28
2023-03-10T06:14:42.226Z,97719.16
2023-03-10T06:19:59.467Z,97731.97
2023-03-10T06:22:27.313Z,97715.28
2023-03-10T06:24:59.477Z,97730.97
2023-03-10T06:27:29.804Z,97728.72
2023-03-10T06:32:47.191Z,97732.44
2023-03-10T06:35:17.189Z,97746.09
2023-03-10T06:40:41.805Z,97756.13
2023-03-10T06:43:10.997Z,97752.25
2023-03-10T06:48:35.346Z,97767.28
2023-03-10T06:51:04.807Z,97780.31
2023-03-10T06:53:42.179Z,97770.31
2023-03-10T06:57:05.381Z,97772.56
2023-03-10T06:59:41.867Z,97783.56
2023-03-10T07:02:16.487Z,97787.66
2023-03-10T07:05:10.403Z,97788.03
2023-03-10T07:17:15.133Z,97800.50
2023-03-10T07:19:46.340Z,97802.31
2023-03-10T07:22:15.957Z,97809.38
2023-03-10T07:24:43.407Z,97812.97
2023-03-10T07:27:10.473Z,97815.13
2023-03-10T07:29:37.914Z,97826.31
2023-03-10T07:32:05.868Z,97821.78
2023-03-10T07:34:39.667Z,97817.66
2023-03-10T07:37:10.910Z,97824.19
2023-03-10T07:39:40.707Z,97834.59
2023-03-10T07:42:07.926Z,97824.38
2023-03-10T07:44:35.378Z,97829.63
2023-03-10T07:47:02.319Z,97831.00
2023-03-10T07:49:32.022Z,97827.50
2023-03-10T07:51:59.394Z,97840.75
2023-03-10T07:54:26.785Z,97838.75
2023-03-10T07:56:54.148Z,97836.75
2023-03-10T07:59:21.302Z,97839.19
2023-03-10T08:01:51.012Z,97842.75
2023-03-10T08:04:18.571Z,97843.47
2023-03-10T08:06:54.902Z,97848.91
2023-03-10T08:09:24.293Z,97848.41
2023-03-10T08:11:51.948Z,97850.78
2023-03-10T08:14:24.167Z,97845.47
2023-03-10T08:16:52.371Z,97849.44
2023-03-10T08:19:32.042Z,97856.56
2023-03-10T08:22:11.417Z,97857.66
2023-03-10T08:57:42.733Z,97902.78
2023-03-10T09:00:17.572Z,97903.84
2023-03-10T09:02:49.854Z,97899.19
2023-03-10T09:27:17.029Z,97910.19
2023-03-10T09:29:44.235Z,97904.88
2023-03-10T09:32:13.890Z,97920.50
2023-03-10T09:34:58.093Z,97927.94
2023-03-10T09:37:25.266Z,97932.09
2023-03-10T09:39:52.729Z,97915.84
2023-03-10T09:42:42.795Z,97930.16
2023-03-10T09:45:18.711Z,97927.50
2023-03-10T09:47:50.037Z,97930.59
2023-03-10T09:54:55.341Z,97941.59
2023-03-10T09:57:28.343Z,97937.69
2023-03-10T09:59:58.112Z,97932.97
2023-03-10T10:02:30.791Z,97932.31
2023-03-10T10:05:05.524Z,97941.41
2023-03-10T10:07:44.316Z,97939.53
2023-03-10T10:10:20.355Z,97950.75
2023-03-10T10:12:50.006Z,97937.31
2023-03-10T10:15:18.303Z,97948.53
2023-03-10T10:18:16.180Z,97948.69
2023-03-10T10:20:47.751Z,97954.28
2023-03-10T10:23:17.811Z,97962.06
2023-03-10T10:25:51.889Z,97953.41
2023-03-10T10:28:23.994Z,97958.59
2023-03-10T10:30:51.715Z,97957.16
2023-03-10T10:33:21.386Z,97966.34
2023-03-10T10:36:02.547Z,97966.13
2023-03-10T10:38:31.399Z,97958.41
2023-03-10T10:41:07.312Z,97956.63
2023-03-10T10:43:43.661Z,97959.44
2023-03-10T10:46:14.723Z,97964.91
2023-03-10T10:52:18.381Z,97982.59
2023-03-10T10:58:05.932Z,97983.50
2023-03-10T11:01:05.303Z,97984.25
2023-03-10T11:06:37.274Z,97999.63
2023-03-10T11:09:23.971Z,97992.91
2023-03-10T11:11:55.361Z,97998.59
2023-03-10T11:14:35.534Z,98008.91
2023-03-10T11:17:17.132Z,98017.00
2023-03-10T11:20:04.362Z,98021.56
2023-03-10T11:22:31.281Z,98026.75
2023-03-10T11:25:07.340Z,98026.81
2023-03-10T11:27:43.508Z,98021.06
2023-03-10T11:30:33.670Z,98038.03
2023-03-10T11:33:26.215Z,98026.38
2023-03-10T11:35:59.866Z,98032.50
2023-03-10T11:38:54.854Z,98042.91
2023-03-10T11:41:24.563Z,98039.06
2023-03-10T11:43:54.419Z,98037.44
2023-03-10T11:46:21.489Z,98048.88
2023-03-10T11:52:02.238Z,98059.94
2023-03-10T11:54:34.650Z,98066.66
2023-03-10T11:57:04.306Z,98069.91
2023-03-10T11:59:37.215Z,98089.31
2023-03-10T12:02:04.990Z,98101.38
2023-03-10T12:04:42.067Z,98085.03
2023-03-10T12:07:13.359Z,98083.16
2023-03-10T12:09:42.793Z,98087.38
2023-03-10T12:12:18.935Z,98100.56
2023-03-10T12:14:46.741Z,98091.13
2023-03-10T12:17:15.331Z,98100.69
2023-03-10T12:20:01.059Z,98089.97
2023-03-10T12:22:38.016Z,98097.63
2023-03-10T12:25:05.263Z,98099.75
2023-03-10T12:27:52.006Z,98121.00
2023-03-10T12:30:37.450Z,98108.75
2023-03-10T12:33:04.351Z,98112.06
2023-03-10T12:35:49.538Z,98114.06
2023-03-10T12:38:23.181Z,98132.28
2023-03-10T12:40:51.749Z,98127.16
2023-03-10T12:43:44.318Z,98119.44
2023-03-10T12:46:31.686Z,98128.06
2023-03-10T12:49:02.055Z,98126.44
2023-03-10T12:51:29.175Z,98124.75
2023-03-10T12:54:05.003Z,98144.41
2023-03-10T12:56:52.733Z,98135.22
2023-03-10T12:59:25.882Z,98138.91
2023-03-10T13:01:56.263Z,98144.88
2023-03-10T13:04:23.897Z,98143.25
2023-03-10T13:06:55.435Z,98138.75
2023-03-10T13:09:33.027Z,98156.50
2023-03-10T13:12:04.173Z,98145.63
2023-03-10T13:14:40.054Z,98153.06
2023-03-10T13:17:07.387Z,98150.47
2023-03-10T13:19:35.341Z,98155.56
2023-03-10T13:22:02.226Z,98166.41
2023-03-10T13:24:30.446Z,98160.94
2023-03-10T13:27:08.172Z,98162.81
2023-03-10T13:29:35.339Z,98159.88
2023-03-10T13:32:02.532Z,98179.13
2023-03-10T13:34:30.534Z,98174.19
2023-03-10T13:42:42.903Z,98171.53
2023-03-10T13:45:15.454Z,98170.22
2023-03-10T13:47:43.398Z,98176.72
2023-03-10T13:50:40.434Z,98174.06
2023-03-10T13:53:28.582Z,98175.03
2023-03-10T13:55:59.984Z,98164.84
2023-03-10T13:58:27.880Z,98173.03
2023-03-10T14:00:57.590Z,98188.66
2023-03-10T14:03:58.181Z,98187.81
2023-03-10T14:06:27.271Z,98185.22
2023-03-10T14:08:57.109Z,98194.50
2023-03-10T14:11:56.349Z,98201.97
2023-03-10T14:14:58.760Z,98203.84
2023-03-10T14:17:52.529Z,98209.16
2023-03-10T14:20:26.447Z,98202.06
2023-03-10T14:22:53.763Z,98206.56
2023-03-10T14:25:23.066Z,98203.69
2023-03-10T14:28:04.809Z,98201.84
2023-03-10T14:30:32.882Z,98201.38
2023-03-10T14:33:01.110Z,98198.34
2023-03-10T14:35:30.534Z,98202.63
2023-03-10T14:37:58.329Z,98192.59
2023-03-10T14:40:25.673Z,98210.41
2023-03-10T14:42:54.814Z,98210.25
2023-03-10T14:45:35.673Z,98220.91
2023-03-10T14:48:04.634Z,98215.97
2023-03-10T14:50:32.484Z,98215.66
2023-03-10T14:52:59.793Z,98227.38
2023-03-10T14:55:26.895Z,98226.78
2023-03-10T14:58:17.438Z,98224.03
2023-03-10T15:00:48.908Z,98231.69
2023-03-10T15:03:21.753Z,98241.78
2023-03-10T15:05:49.606Z,98244.69
2023-03-10T15:08:18.303Z,98250.91
2023-03-10T15:10:51.837Z,98256.84
2023-03-10T15:13:25.065Z,98253.22
2023-03-10T15:15:52.688Z,98261.81
2023-03-10T15:18:22.863Z,98266.75
2023-03-10T15:20:53.319Z,98269.59
2023-03-10T15:23:35.202Z,98270.44
2023-03-10T15:26:09.865Z,98282.28
2023-03-10T15:38:05.748Z,98302.59
2023-03-10T15:43:14.725Z,98305.44
2023-03-10T15:48:29.394Z,98310.94
2023-03-10T15:50:56.491Z,98314.75
2023-03-10T15:53:23.590Z,98308.03
2023-03-10T15:58:58.558Z,98313.91
2023-03-10T16:01:27.131Z,98325.91
2023-03-10T16:03:57.970Z,98328.97
2023-03-10T16:06:27.728Z,98331.00
2023-03-10T16:09:04.133Z,98332.22
2023-03-10T16:16:00.734Z,98334.19
2023-03-10T16:18:30.774Z,98339.06
2023-03-10T16:21:08.447Z,98334.97
2023-03-10T16:23:39.293Z,98335.38
2023-03-10T16:26:12.861Z,98336.59
2023-03-10T16:28:42.900Z,98340.25
2023-03-10T16:31:11.323Z,98341.25
2023-03-10T16:33:42.057Z,98344.72
2023-03-10T16:36:24.156Z,98343.91
2023-03-10T16:48:46.530Z,98345.38
2023-03-10T16:54:34.984Z,98352.91
2023-03-10T16:57:03.711Z,98351.28
2023-03-10T16:59:36.128Z,98343.34
2023-03-10T17:03:21.764Z,98346.81
2023-03-10T17:05:55.613Z,98338.47
2023-03-10T17:08:30.292Z,98342.75
2023-03-10T17:11:03.880Z,98348.88
2023-03-10T17:13:34.807Z,98349.25
2023-03-10T17:16:02.257Z,98351.28
2023-03-10T17:18:31.031Z,98351.28
2023-03-10T17:20:58.111Z,98351.91
2023-03-10T17:23:25.348Z,98351.72
2023-03-10T17:25:56.879Z,98358.84
2023-03-10T17:28:27.729Z,98350.69
2023-03-10T17:31:01.985Z,98352.72
2023-03-10T17:33:31.696Z,98352.91
2023-03-10T17:35:59.380Z,98357.41
2023-03-10T17:38:27.011Z,98351.28
2023-03-10T17:40:57.637Z,98358.22
2023-03-10T17:43:34.013Z,98347.63
2023-03-10T17:46:05.777Z,98356.00
2023-03-10T17:48:34.053Z,98351.13
2023-03-10T18:28:35.679Z,98384.44
2023-03-10T18:38:55.692Z,98385.69
2023-03-10T19:13:14.536Z,98379.47
2023-03-10T20:37:25.552Z,98451.56
2023-03-10T20:48:25.183Z,98461.97
2023-03-10T21:11:33.077Z,98472.41
2023-03-10T21:33:04.079Z,98489.31
2023-03-10T21:56:05.287Z,98508.53
2023-03-10T22:27:51.425Z,98523.34
2023-03-10T22:30:21.829Z,98528.47
2023-03-10T22:48:39.643Z,98515.41
2023-03-10T22:51:11.108Z,98514.59
2023-03-10T22:56:55.368Z,98519.06
2023-03-10T23:02:40.772Z,98514.97
2023-03-10T23:38:00.480Z,98496.66
2023-03-10T23:51:49.764Z,98495.41
